Time;durP1;ratioP1;P1;durP2;ratioP2;P2;SDS_P1;SDS_P2;PMS_P1;PMS_P2;Temp;Humidity;BMP_temperature;BMP_pressure;BME280_temperature;BME280_humidity;BME280_pressure;Samples;Min_cycle;Max_cycle;Signal;HPM_P1;HPM_P2
2022/09/02 00:00:51;;;;;;;4.93;1.60;;;;;;;;;;4990842;28;20118;-60
2022/09/02 00:03:18;;;;;;;2.10;1.48;;;;;;;;;;4989436;28;20038;-60
2022/09/02 00:05:43;;;;;;;4.00;1.73;;;;;;;;;;4990741;28;20034;-60
2022/09/02 00:08:12;;;;;;;3.22;1.60;;;;;;;;;;4993061;28;20038;-60
2022/09/02 00:10:40;;;;;;;2.88;1.52;;;;;;;;;;4994164;28;20382;-60
2022/09/02 00:13:08;;;;;;;5.20;1.70;;;;;;;;;;4992425;28;20427;-60
2022/09/02 00:15:33;;;;;;;1.95;1.48;;;;;;;;;;4993703;28;20407;-60
2022/09/02 00:18:00;;;;;;;4.03;1.40;;;;;;;;;;4993555;28;20521;-61
2022/09/02 00:20:28;;;;;;;4.63;1.73;;;;;;;;;;4993542;28;20057;-61
2022/09/02 00:22:53;;;;;;;1.77;1.40;;;;;;;;;;4992160;28;20036;-61
2022/09/02 00:25:19;;;;;;;4.28;1.50;;;;;;;;;;4994611;28;20387;-60
2022/09/02 00:27:45;;;;;;;2.15;1.38;;;;;;;;;;4991775;28;20494;-61
2022/09/02 00:30:11;;;;;;;2.53;1.60;;;;;;;;;;4990572;28;20035;-61
2022/09/02 00:32:37;;;;;;;2.17;1.50;;;;;;;;;;4993859;28;20041;-61
2022/09/02 00:35:03;;;;;;;3.78;1.75;;;;;;;;;;4992526;28;20034;-62
2022/09/02 00:37:28;;;;;;;1.73;1.30;;;;;;;;;;4991783;28;20149;-61
2022/09/02 00:39:56;;;;;;;2.35;1.48;;;;;;;;;;4993858;28;20239;-60
2022/09/02 00:42:22;;;;;;;2.83;1.50;;;;;;;;;;4992592;28;20039;-61
2022/09/02 00:44:48;;;;;;;8.85;1.50;;;;;;;;;;4992967;28;20044;-61
2022/09/02 00:47:14;;;;;;;2.17;1.50;;;;;;;;;;4991626;28;20026;-61
2022/09/02 00:49:44;;;;;;;2.30;1.40;;;;;;;;;;4994276;28;20045;-61
2022/09/02 00:52:24;;;;;;;4.07;1.60;;;;;;;;;;4991374;28;20046;-62
2022/09/02 00:54:55;;;;;;;2.92;1.60;;;;;;;;;;4993391;28;20049;-61
2022/09/02 00:57:23;;;;;;;2.25;1.55;;;;;;;;;;4995160;28;20030;-59
2022/09/02 01:00:12;;;;;;;1.75;1.33;;;;;;;;;;4992030;28;20065;-61
2022/09/02 01:02:40;;;;;;;3.58;1.50;;;;;;;;;;4994283;28;20041;-60
2022/09/02 01:05:09;;;;;;;2.10;1.40;;;;;;;;;;4989851;28;20108;-61
2022/09/02 01:07:37;;;;;;;2.17;1.42;;;;;;;;;;4992596;28;20034;-60
2022/09/02 01:10:10;;;;;;;3.83;1.50;;;;;;;;;;4985284;28;20050;-61
2022/09/02 01:12:36;;;;;;;2.95;1.60;;;;;;;;;;4987940;28;20458;-60
2022/09/02 01:15:04;;;;;;;3.70;1.48;;;;;;;;;;4992412;28;20384;-60
2022/09/02 01:17:32;;;;;;;2.13;1.30;;;;;;;;;;4990323;28;20598;-60
2022/09/02 01:20:04;;;;;;;4.07;1.40;;;;;;;;;;4993079;28;20085;-60
2022/09/02 01:22:32;;;;;;;2.72;1.60;;;;;;;;;;4992998;28;20038;-60
2022/09/02 01:25:04;;;;;;;3.38;1.52;;;;;;;;;;4991330;28;22005;-62
2022/09/02 01:27:30;;;;;;;4.32;1.50;;;;;;;;;;4992867;28;20069;-61
2022/09/02 01:29:58;;;;;;;2.78;1.45;;;;;;;;;;4987450;28;20054;-60
2022/09/02 01:32:25;;;;;;;2.05;1.40;;;;;;;;;;4992991;28;20105;-60
2022/09/02 01:34:51;;;;;;;1.88;1.40;;;;;;;;;;4993492;28;20044;-60
2022/09/02 01:37:17;;;;;;;3.50;1.40;;;;;;;;;;4991048;28;20026;-60
2022/09/02 01:39:44;;;;;;;3.47;1.40;;;;;;;;;;4992481;28;20042;-60
2022/09/02 01:42:10;;;;;;;3.30;1.55;;;;;;;;;;4990027;28;20046;-62
2022/09/02 01:44:42;;;;;;;1.75;1.30;;;;;;;;;;4992293;28;20113;-61
2022/09/02 01:47:09;;;;;;;3.05;1.30;;;;;;;;;;4986422;28;20058;-61
2022/09/02 01:49:35;;;;;;;3.35;1.40;;;;;;;;;;4991515;28;20109;-60
2022/09/02 01:52:00;;;;;;;2.05;1.58;;;;;;;;;;4992423;28;20537;-61
2022/09/02 01:54:25;;;;;;;2.65;1.45;;;;;;;;;;4991100;28;20482;-61
2022/09/02 01:56:51;;;;;;;2.92;1.30;;;;;;;;;;4992862;28;20460;-62
2022/09/02 01:59:16;;;;;;;3.28;1.48;;;;;;;;;;4988828;28;20042;-61
2022/09/02 02:01:43;;;;;;;3.85;1.60;;;;;;;;;;4990718;28;20034;-61
2022/09/02 02:04:09;;;;;;;4.10;1.67;;;;;;;;;;4985729;28;21310;-62
2022/09/02 02:06:39;;;;;;;3.25;1.45;;;;;;;;;;4993148;28;20483;-60
2022/09/02 02:09:06;;;;;;;3.25;1.48;;;;;;;;;;4991042;28;20054;-61
2022/09/02 02:11:31;;;;;;;2.05;1.40;;;;;;;;;;4990842;28;20446;-61
2022/09/02 02:13:57;;;;;;;3.83;1.42;;;;;;;;;;4990988;28;20046;-61
2022/09/02 02:16:22;;;;;;;1.45;1.33;;;;;;;;;;4990775;28;20041;-61
2022/09/02 02:18:48;;;;;;;2.33;1.50;;;;;;;;;;4991041;28;20387;-62
2022/09/02 02:21:13;;;;;;;4.68;1.58;;;;;;;;;;4990719;28;20121;-60
2022/09/02 02:23:39;;;;;;;1.90;1.38;;;;;;;;;;4992764;28;20462;-61
2022/09/02 02:26:05;;;;;;;3.28;1.40;;;;;;;;;;4990566;28;20080;-61
2022/09/02 02:28:30;;;;;;;3.80;1.38;;;;;;;;;;4991797;28;20061;-61
2022/09/02 02:30:57;;;;;;;4.97;1.35;;;;;;;;;;4991715;28;20376;-61
2022/09/02 02:33:22;;;;;;;2.50;1.60;;;;;;;;;;4990581;28;20474;-61
2022/09/02 02:35:48;;;;;;;3.72;1.55;;;;;;;;;;4990864;28;20030;-64
2022/09/02 02:38:13;;;;;;;2.25;1.40;;;;;;;;;;4990699;28;20065;-61
2022/09/02 02:40:39;;;;;;;3.30;1.50;;;;;;;;;;4990229;28;20081;-60
2022/09/02 02:43:04;;;;;;;4.20;1.40;;;;;;;;;;4991471;28;20022;-60
2022/09/02 02:45:30;;;;;;;3.35;1.50;;;;;;;;;;4988986;28;20513;-60
2022/09/02 02:47:55;;;;;;;4.95;1.50;;;;;;;;;;4990224;28;20506;-60
2022/09/02 02:50:23;;;;;;;4.07;1.40;;;;;;;;;;4980317;28;20186;-60
2022/09/02 02:52:49;;;;;;;2.10;1.38;;;;;;;;;;4993105;28;20030;-61
2022/09/02 02:55:15;;;;;;;2.70;1.50;;;;;;;;;;4988879;28;20126;-62
2022/09/02 02:57:41;;;;;;;2.10;1.10;;;;;;;;;;4993026;28;20117;-61
2022/09/02 03:00:09;;;;;;;2.17;1.20;;;;;;;;;;4989614;28;20430;-62
2022/09/02 03:02:35;;;;;;;3.80;1.45;;;;;;;;;;4993201;28;20480;-61
2022/09/02 03:05:02;;;;;;;3.42;1.55;;;;;;;;;;4986023;28;20085;-61
2022/09/02 03:07:27;;;;;;;4.03;1.38;;;;;;;;;;4992752;28;20049;-61
2022/09/02 03:09:53;;;;;;;3.22;1.33;;;;;;;;;;4988768;28;20115;-61
2022/09/02 03:12:18;;;;;;;3.97;1.40;;;;;;;;;;4989292;28;20491;-61
2022/09/02 03:14:43;;;;;;;6.47;1.30;;;;;;;;;;4990338;28;20046;-61
2022/09/02 03:17:09;;;;;;;4.72;1.50;;;;;;;;;;4989804;28;20089;-60
2022/09/02 03:19:35;;;;;;;2.67;1.35;;;;;;;;;;4991636;28;20030;-61
2022/09/02 03:22:00;;;;;;;4.05;1.40;;;;;;;;;;4990555;28;20034;-61
2022/09/02 03:24:25;;;;;;;2.92;1.40;;;;;;;;;;4990078;28;20076;-61
2022/09/02 03:26:51;;;;;;;2.15;1.35;;;;;;;;;;4983623;28;20031;-61
2022/09/02 03:29:16;;;;;;;1.67;1.30;;;;;;;;;;4979500;28;20539;-61
2022/09/02 03:31:42;;;;;;;3.45;1.40;;;;;;;;;;4990111;28;20045;-61
2022/09/02 03:34:07;;;;;;;2.75;1.38;;;;;;;;;;4987641;28;20040;-62
2022/09/02 03:36:37;;;;;;;2.25;1.50;;;;;;;;;;4991443;28;20114;-61
2022/09/02 03:39:04;;;;;;;2.97;1.30;;;;;;;;;;4990684;28;20090;-60
2022/09/02 03:41:30;;;;;;;3.83;1.30;;;;;;;;;;4996664;28;20069;-59
2022/09/02 03:43:56;;;;;;;3.45;1.45;;;;;;;;;;4995398;28;20116;-59
2022/09/02 03:46:22;;;;;;;1.42;1.25;;;;;;;;;;4995626;28;20149;-60
2022/09/02 03:48:50;;;;;;;4.10;1.40;;;;;;;;;;4994841;28;20033;-60
2022/09/02 03:51:17;;;;;;;4.30;1.30;;;;;;;;;;4997117;28;20030;-60
2022/09/02 03:53:43;;;;;;;4.93;1.55;;;;;;;;;;4996580;28;20022;-60
2022/09/02 03:56:10;;;;;;;3.88;1.40;;;;;;;;;;4995273;28;20041;-61
2022/09/02 03:58:37;;;;;;;2.20;1.40;;;;;;;;;;4996429;28;20148;-60
2022/09/02 04:01:03;;;;;;;4.82;1.48;;;;;;;;;;4996070;28;20113;-60
2022/09/02 04:03:29;;;;;;;2.60;1.33;;;;;;;;;;4992568;28;20456;-61
2022/09/02 04:05:54;;;;;;;2.20;1.20;;;;;;;;;;4996173;28;20193;-60
2022/09/02 04:08:21;;;;;;;3.33;1.40;;;;;;;;;;4996253;28;20072;-60
2022/09/02 04:10:46;;;;;;;4.90;1.50;;;;;;;;;;4998333;28;20026;-60
2022/09/02 04:13:11;;;;;;;2.45;1.30;;;;;;;;;;4993081;28;20038;-60
2022/09/02 04:15:43;;;;;;;2.78;1.42;;;;;;;;;;4997910;28;20026;-61
2022/09/02 04:21:36;;;;;;;2.45;1.35;;;;;;;;;;5004110;28;20096;-61
2022/09/02 04:24:01;;;;;;;1.88;1.48;;;;;;;;;;4996921;28;20494;-61
2022/09/02 04:26:27;;;;;;;2.75;1.40;;;;;;;;;;4994436;28;20029;-61
2022/09/02 04:28:53;;;;;;;4.15;1.60;;;;;;;;;;4997405;28;20442;-60
2022/09/02 04:31:20;;;;;;;6.03;1.80;;;;;;;;;;4996142;28;20038;-62
2022/09/02 04:33:46;;;;;;;5.00;1.60;;;;;;;;;;4996588;28;20034;-60
2022/09/02 04:36:15;;;;;;;3.53;1.70;;;;;;;;;;4996474;28;20437;-61
2022/09/02 04:38:41;;;;;;;5.38;2.08;;;;;;;;;;4997677;28;20034;-62
2022/09/02 04:41:10;;;;;;;4.78;1.80;;;;;;;;;;4995672;28;20180;-62
2022/09/02 04:43:36;;;;;;;3.15;1.75;;;;;;;;;;4994717;28;20038;-61
2022/09/02 04:46:07;;;;;;;4.50;1.80;;;;;;;;;;4995289;28;20491;-61
2022/09/02 04:48:35;;;;;;;3.95;1.70;;;;;;;;;;4997247;28;20034;-60
2022/09/02 04:51:09;;;;;;;5.03;1.70;;;;;;;;;;4996766;28;20042;-62
2022/09/02 04:53:35;;;;;;;4.65;1.63;;;;;;;;;;4993019;28;20030;-61
2022/09/02 04:56:04;;;;;;;5.10;1.80;;;;;;;;;;4994055;28;20042;-62
2022/09/02 04:58:30;;;;;;;4.22;1.60;;;;;;;;;;4994236;28;20041;-61
2022/09/02 05:00:55;;;;;;;2.58;1.48;;;;;;;;;;4993647;28;20038;-60
2022/09/02 05:03:21;;;;;;;4.78;1.75;;;;;;;;;;4992610;28;20078;-59
2022/09/02 05:05:47;;;;;;;2.63;1.58;;;;;;;;;;4994783;28;20039;-60
2022/09/02 05:08:12;;;;;;;3.08;1.60;;;;;;;;;;4990837;28;20085;-61
2022/09/02 05:10:39;;;;;;;3.03;1.60;;;;;;;;;;4995550;28;20030;-60
2022/09/02 05:13:04;;;;;;;3.53;1.50;;;;;;;;;;4992330;28;20031;-61
2022/09/02 05:15:30;;;;;;;3.95;1.52;;;;;;;;;;4992100;28;20034;-60
2022/09/02 05:17:56;;;;;;;6.70;1.60;;;;;;;;;;4987710;28;20121;-60
2022/09/02 05:20:22;;;;;;;3.90;1.45;;;;;;;;;;4992121;28;20030;-60
2022/09/02 05:22:48;;;;;;;2.42;1.60;;;;;;;;;;4994804;28;20579;-60
2022/09/02 05:25:14;;;;;;;4.80;1.60;;;;;;;;;;4992213;28;20046;-61
2022/09/02 05:27:39;;;;;;;3.53;1.73;;;;;;;;;;4994018;28;20030;-63
2022/09/02 05:30:06;;;;;;;6.38;1.80;;;;;;;;;;4991427;28;20569;-63
2022/09/02 05:32:31;;;;;;;3.00;1.58;;;;;;;;;;4989085;28;20402;-64
2022/09/02 05:34:57;;;;;;;3.30;1.70;;;;;;;;;;4993415;28;20490;-63
2022/09/02 05:37:23;;;;;;;5.63;2.42;;;;;;;;;;4991705;28;20388;-64
2022/09/02 05:39:49;;;;;;;4.97;1.70;;;;;;;;;;4987171;28;20030;-64
2022/09/02 05:42:15;;;;;;;5.35;1.60;;;;;;;;;;4978004;28;20030;-65
2022/09/02 05:44:43;;;;;;;3.35;1.50;;;;;;;;;;4992116;28;20169;-64
2022/09/02 05:47:09;;;;;;;3.67;1.70;;;;;;;;;;4992860;28;20062;-63
2022/09/02 05:49:35;;;;;;;5.18;1.92;;;;;;;;;;4993581;28;20499;-64
2022/09/02 05:52:00;;;;;;;2.75;1.73;;;;;;;;;;4992721;28;20161;-63
2022/09/02 05:54:32;;;;;;;3.15;1.55;;;;;;;;;;4990124;28;20080;-63
2022/09/02 05:57:04;;;;;;;5.60;1.90;;;;;;;;;;4993494;28;20038;-66
2022/09/02 05:59:30;;;;;;;6.80;1.80;;;;;;;;;;4992132;28;20050;-63
2022/09/02 06:01:57;;;;;;;2.92;1.50;;;;;;;;;;4975008;28;20090;-62
2022/09/02 06:04:22;;;;;;;4.38;1.70;;;;;;;;;;4989782;28;20045;-63
2022/09/02 06:06:49;;;;;;;4.03;1.60;;;;;;;;;;4992203;28;20372;-65
2022/09/02 06:09:17;;;;;;;3.22;1.70;;;;;;;;;;4975327;28;20031;-64
2022/09/02 06:11:48;;;;;;;4.50;1.60;;;;;;;;;;4985615;28;20046;-65
2022/09/02 06:14:17;;;;;;;3.70;1.75;;;;;;;;;;4984082;28;20038;-64
2022/09/02 06:16:43;;;;;;;5.88;2.10;;;;;;;;;;4990204;28;20506;-64
2022/09/02 06:19:09;;;;;;;4.35;1.90;;;;;;;;;;4993267;28;20038;-64
2022/09/02 06:21:36;;;;;;;5.30;1.80;;;;;;;;;;4991724;28;20044;-63
2022/09/02 06:24:05;;;;;;;5.80;1.70;;;;;;;;;;4993663;28;20026;-63
2022/09/02 06:26:31;;;;;;;6.18;1.98;;;;;;;;;;4991773;28;20149;-62
2022/09/02 06:28:56;;;;;;;3.33;1.77;;;;;;;;;;4991940;28;20117;-64
2022/09/02 06:31:22;;;;;;;4.70;1.63;;;;;;;;;;4991634;28;20038;-63
2022/09/02 06:33:52;;;;;;;5.93;1.92;;;;;;;;;;4989262;28;20947;-63
2022/09/02 06:36:20;;;;;;;5.40;2.13;;;;;;;;;;5007396;28;20391;-61
2022/09/02 06:38:49;;;;;;;7.22;1.80;;;;;;;;;;4990803;28;20395;-63
2022/09/02 06:41:19;;;;;;;4.53;1.80;;;;;;;;;;4990254;28;20034;-62
2022/09/02 06:43:45;;;;;;;5.78;1.65;;;;;;;;;;4982608;28;20038;-61
2022/09/02 06:46:19;;;;;;;5.78;1.67;;;;;;;;;;4977791;28;20117;-62
2022/09/02 06:48:44;;;;;;;6.13;1.75;;;;;;;;;;4992634;28;20030;-63
2022/09/02 06:51:25;;;;;;;10.23;1.90;;;;;;;;;;4991967;28;20489;-64
2022/09/02 06:53:51;;;;;;;3.03;1.65;;;;;;;;;;4991547;28;20034;-63
2022/09/02 06:56:17;;;;;;;7.43;2.00;;;;;;;;;;4990530;28;20042;-63
2022/09/02 06:58:43;;;;;;;4.30;1.88;;;;;;;;;;4992565;28;20054;-62
2022/09/02 07:01:09;;;;;;;5.45;1.70;;;;;;;;;;4992459;28;20037;-64
2022/09/02 07:06:18;;;;;;;4.38;1.60;;;;;;;;;;4992637;28;20070;-64
2022/09/02 07:08:44;;;;;;;8.50;2.10;;;;;;;;;;4992163;28;20038;-65
2022/09/02 07:11:23;;;;;;;4.35;1.83;;;;;;;;;;4990786;28;20073;-62
2022/09/02 07:13:49;;;;;;;7.35;2.00;;;;;;;;;;4990726;28;20138;-64
2022/09/02 07:16:15;;;;;;;4.43;2.00;;;;;;;;;;4991742;28;20034;-66
2022/09/02 07:18:42;;;;;;;6.70;2.10;;;;;;;;;;4986460;28;20078;-64
2022/09/02 07:21:09;;;;;;;8.88;2.17;;;;;;;;;;4986797;28;20042;-62
2022/09/02 07:23:35;;;;;;;9.05;2.10;;;;;;;;;;4991664;28;20057;-64
2022/09/02 07:26:00;;;;;;;5.05;1.90;;;;;;;;;;4989159;28;20085;-65
2022/09/02 07:28:26;;;;;;;9.52;2.05;;;;;;;;;;4983662;28;20446;-65
2022/09/02 07:30:54;;;;;;;6.40;1.90;;;;;;;;;;4989457;28;20455;-65
2022/09/02 07:33:20;;;;;;;3.72;2.00;;;;;;;;;;4991704;28;20026;-64
2022/09/02 07:35:46;;;;;;;4.78;2.10;;;;;;;;;;4991147;28;20034;-62
2022/09/02 07:38:11;;;;;;;5.10;1.80;;;;;;;;;;4988511;28;20026;-62
2022/09/02 07:40:39;;;;;;;11.20;2.17;;;;;;;;;;4989873;28;20057;-63
2022/09/02 07:43:07;;;;;;;9.82;1.88;;;;;;;;;;4991137;28;20122;-64
2022/09/02 07:45:33;;;;;;;6.43;1.80;;;;;;;;;;4990316;28;20052;-63
2022/09/02 07:47:58;;;;;;;8.00;1.90;;;;;;;;;;4991212;28;20451;-62
2022/09/02 07:50:25;;;;;;;5.70;1.90;;;;;;;;;;4990297;28;20041;-63
2022/09/02 07:52:56;;;;;;;5.10;1.95;;;;;;;;;;4991115;28;20057;-62
2022/09/02 07:55:22;;;;;;;10.73;1.90;;;;;;;;;;4988465;28;20064;-63
2022/09/02 07:57:48;;;;;;;4.10;1.58;;;;;;;;;;4990549;28;20039;-63
2022/09/02 08:00:16;;;;;;;6.80;2.03;;;;;;;;;;4991523;28;20506;-63
2022/09/02 08:02:43;;;;;;;5.22;1.95;;;;;;;;;;4991370;28;20034;-63
2022/09/02 08:05:09;;;;;;;9.73;2.10;;;;;;;;;;4991381;28;20042;-63
2022/09/02 08:07:34;;;;;;;5.75;1.60;;;;;;;;;;4991268;28;20037;-64
2022/09/02 08:10:00;;;;;;;5.53;1.77;;;;;;;;;;4990896;28;20062;-64
2022/09/02 08:12:27;;;;;;;11.02;2.03;;;;;;;;;;4979491;28;20035;-65
2022/09/02 08:14:52;;;;;;;8.60;2.33;;;;;;;;;;4974475;28;20031;-62
2022/09/02 08:17:18;;;;;;;8.88;2.03;;;;;;;;;;4981281;28;20444;-62
2022/09/02 08:19:44;;;;;;;7.35;2.30;;;;;;;;;;4985348;28;20117;-62
2022/09/02 08:22:09;;;;;;;6.80;2.15;;;;;;;;;;4990753;28;20026;-63
2022/09/02 08:24:35;;;;;;;9.43;2.00;;;;;;;;;;4987256;28;20042;-64
2022/09/02 08:27:00;;;;;;;3.85;1.90;;;;;;;;;;4992507;28;20506;-65
2022/09/02 08:29:25;;;;;;;9.48;1.95;;;;;;;;;;4992281;28;20384;-61
2022/09/02 08:31:51;;;;;;;5.78;1.90;;;;;;;;;;4995321;28;20034;-62
2022/09/02 08:34:17;;;;;;;7.85;2.20;;;;;;;;;;4992140;28;20043;-64
2022/09/02 08:36:43;;;;;;;6.90;2.38;;;;;;;;;;4994795;28;20037;-61
2022/09/02 08:39:09;;;;;;;5.07;2.00;;;;;;;;;;4994869;28;20046;-64
2022/09/02 08:42:05;;;;;;;8.15;2.10;;;;;;;;;;4993658;28;20034;-63
2022/09/02 08:44:35;;;;;;;5.15;1.98;;;;;;;;;;4990506;28;20284;-64
2022/09/02 08:47:03;;;;;;;5.22;1.88;;;;;;;;;;4993628;28;20041;-65
2022/09/02 08:49:42;;;;;;;8.80;2.33;;;;;;;;;;4994331;28;20482;-63
2022/09/02 08:52:19;;;;;;;9.10;2.15;;;;;;;;;;4991235;28;20475;-62
2022/09/02 08:54:54;;;;;;;4.65;2.03;;;;;;;;;;4993954;28;20042;-63
2022/09/02 08:57:19;;;;;;;8.50;2.20;;;;;;;;;;4992582;28;20045;-63
2022/09/02 08:59:47;;;;;;;6.43;2.25;;;;;;;;;;4993802;28;20038;-61
2022/09/02 09:02:46;;;;;;;9.23;2.50;;;;;;;;;;4992341;28;20566;-63
2022/09/02 09:05:42;;;;;;;5.82;1.90;;;;;;;;;;4994227;28;20505;-63
2022/09/02 09:08:29;;;;;;;3.65;2.10;;;;;;;;;;4994953;28;20041;-63
2022/09/02 09:11:02;;;;;;;8.02;2.28;;;;;;;;;;4992415;28;20034;-62
2022/09/02 09:14:08;;;;;;;7.45;2.30;;;;;;;;;;4993073;28;20073;-63
2022/09/02 09:16:46;;;;;;;11.20;2.28;;;;;;;;;;4989454;28;20062;-62
2022/09/02 09:19:30;;;;;;;6.40;2.10;;;;;;;;;;4993630;28;20030;-63
2022/09/02 09:21:59;;;;;;;4.60;2.30;;;;;;;;;;4992999;28;20034;-62
2022/09/02 09:24:38;;;;;;;8.97;2.00;;;;;;;;;;4991464;28;20049;-62
2022/09/02 09:27:11;;;;;;;4.90;2.00;;;;;;;;;;4993129;28;20030;-62
2022/09/02 09:29:36;;;;;;;5.57;2.10;;;;;;;;;;4989924;28;20033;-63
2022/09/02 09:32:04;;;;;;;7.45;2.10;;;;;;;;;;4994652;28;20030;-63
2022/09/02 09:34:55;;;;;;;7.45;2.00;;;;;;;;;;4992305;28;20464;-63
2022/09/02 09:37:48;;;;;;;6.05;2.20;;;;;;;;;;4993843;28;20034;-63
2022/09/02 09:40:23;;;;;;;4.97;2.03;;;;;;;;;;4993707;28;20121;-62
2022/09/02 09:42:51;;;;;;;6.88;2.00;;;;;;;;;;4993201;28;20034;-62
2022/09/02 09:45:27;;;;;;;6.47;2.13;;;;;;;;;;4994356;28;20112;-64
2022/09/02 09:48:14;;;;;;;5.22;2.65;;;;;;;;;;4993407;28;20037;-65
2022/09/02 09:50:40;;;;;;;7.65;2.17;;;;;;;;;;4993770;28;20653;-64
2022/09/02 09:53:21;;;;;;;33.65;4.68;;;;;;;;;;4992810;28;20038;-62
2022/09/02 09:55:54;;;;;;;;;;;;;;;;;;4993884;28;20038;-62
2022/09/02 09:58:21;;;;;;;8.85;2.28;;;;;;;;;;4992401;28;19914;-60
2022/09/02 10:00:47;;;;;;;4.65;1.95;;;;;;;;;;4993462;28;20026;-61
2022/09/02 10:03:26;;;;;;;4.63;1.92;;;;;;;;;;4993256;28;20041;-60
2022/09/02 10:05:56;;;;;;;8.65;1.98;;;;;;;;;;4993336;28;20496;-60
2022/09/02 10:08:26;;;;;;;6.82;2.35;;;;;;;;;;4993279;28;20037;-60
2022/09/02 10:10:59;;;;;;;3.78;1.95;;;;;;;;;;4992384;28;20034;-59
2022/09/02 10:13:30;;;;;;;3.63;2.10;;;;;;;;;;4993029;28;20044;-61
2022/09/02 10:16:02;;;;;;;8.35;2.17;;;;;;;;;;4993631;28;20065;-59
2022/09/02 10:19:01;;;;;;;178.32;13.45;;;;;;;;;;4992770;28;20038;-61
2022/09/02 10:22:04;;;;;;;12.77;2.40;;;;;;;;;;4972858;28;20150;-62
2022/09/02 10:24:44;;;;;;;6.25;1.90;;;;;;;;;;4976592;28;20113;-63
2022/09/02 10:27:23;;;;;;;7.80;1.98;;;;;;;;;;4993514;28;20030;-61
2022/09/02 10:30:18;;;;;;;4.22;1.92;;;;;;;;;;4990994;28;20049;-61
2022/09/02 10:33:03;;;;;;;104.90;7.57;;;;;;;;;;4989777;28;20042;-62
2022/09/02 10:35:43;;;;;;;5.28;2.20;;;;;;;;;;4991457;28;20056;-61
2022/09/02 10:38:28;;;;;;;5.45;1.90;;;;;;;;;;4992250;28;20034;-62
2022/09/02 10:41:32;;;;;;;5.20;2.10;;;;;;;;;;4981338;28;20045;-61
2022/09/02 10:44:25;;;;;;;5.68;1.90;;;;;;;;;;4988586;28;20103;-61
2022/09/02 10:47:23;;;;;;;6.70;1.90;;;;;;;;;;4991890;28;20042;-61
2022/09/02 10:50:06;;;;;;;294.15;16.40;;;;;;;;;;4975977;28;20054;-62
2022/09/02 10:52:59;;;;;;;5.70;2.30;;;;;;;;;;4990410;28;20479;-62
2022/09/02 10:55:51;;;;;;;5.15;1.98;;;;;;;;;;4988150;28;20026;-63
2022/09/02 10:58:44;;;;;;;2.85;1.90;;;;;;;;;;4985944;28;20054;-61
2022/09/02 11:01:18;;;;;;;4.72;2.00;;;;;;;;;;4993280;28;20109;-63
2022/09/02 11:04:19;;;;;;;3.50;1.90;;;;;;;;;;4991057;28;20042;-61
2022/09/02 11:06:48;;;;;;;75.97;5.32;;;;;;;;;;4992179;28;20479;-62
2022/09/02 11:09:25;;;;;;;4.93;1.88;;;;;;;;;;4991755;28;20031;-64
2022/09/02 11:11:59;;;;;;;7.43;2.00;;;;;;;;;;4987802;28;20043;-63
2022/09/02 11:14:43;;;;;;;14.90;2.42;;;;;;;;;;4987319;28;20038;-61
2022/09/02 11:17:35;;;;;;;220.95;14.52;;;;;;;;;;4991793;28;20046;-62
2022/09/02 11:20:25;;;;;;;5.50;1.80;;;;;;;;;;4991092;28;20045;-62
2022/09/02 11:23:12;;;;;;;5.27;1.90;;;;;;;;;;4992399;28;20168;-62
2022/09/02 11:25:43;;;;;;;5.10;2.10;;;;;;;;;;4990874;28;20045;-62
2022/09/02 11:28:30;;;;;;;4.85;1.90;;;;;;;;;;4992007;28;20121;-61
2022/09/02 11:31:34;;;;;;;4.10;2.00;;;;;;;;;;4982981;28;20031;-63
2022/09/02 11:34:33;;;;;;;4.97;1.83;;;;;;;;;;4959614;28;20042;-63
2022/09/02 11:37:03;;;;;;;6.00;2.25;;;;;;;;;;4990736;28;20038;-62
2022/09/02 11:39:48;;;;;;;7.80;1.98;;;;;;;;;;4990470;28;20100;-62
2022/09/02 11:42:45;;;;;;;4.28;1.80;;;;;;;;;;4992740;28;20125;-62
2022/09/02 11:45:22;;;;;;;2.92;1.98;;;;;;;;;;4990087;28;20049;-63
2022/09/02 11:48:15;;;;;;;11.13;2.10;;;;;;;;;;4991647;28;20054;-64
2022/09/02 11:51:15;;;;;;;5.00;1.83;;;;;;;;;;4992109;28;20045;-62
2022/09/02 11:53:43;;;;;;;6.32;1.80;;;;;;;;;;4985858;28;20058;-61
2022/09/02 11:56:24;;;;;;;5.88;1.95;;;;;;;;;;4988893;28;20077;-63
2022/09/02 11:58:51;;;;;;;5.93;1.83;;;;;;;;;;4987239;28;20149;-65
2022/09/02 12:01:32;;;;;;;6.82;2.10;;;;;;;;;;4991076;28;20041;-67
2022/09/02 12:04:20;;;;;;;5.10;1.80;;;;;;;;;;4990911;28;20092;-64
2022/09/02 12:07:11;;;;;;;20.60;3.40;;;;;;;;;;4994942;28;20942;-68
2022/09/02 12:09:48;;;;;;;9.35;2.20;;;;;;;;;;4991295;28;20042;-64
2022/09/02 12:12:47;;;;;;;4.78;1.70;;;;;;;;;;4994248;28;20038;-65
2022/09/02 12:15:18;;;;;;;3.65;1.65;;;;;;;;;;4953909;28;20101;-64
2022/09/02 12:17:46;;;;;;;5.85;1.60;;;;;;;;;;4976721;28;20456;-64
2022/09/02 12:20:53;;;;;;;3.25;1.90;;;;;;;;;;4991949;28;20046;-64
2022/09/02 12:23:58;;;;;;;4.75;1.80;;;;;;;;;;4982647;28;20474;-63
2022/09/02 12:26:29;;;;;;;3.67;1.65;;;;;;;;;;4980400;28;20046;-62
2022/09/02 12:29:21;;;;;;;5.10;1.70;;;;;;;;;;4992549;28;20034;-64
2022/09/02 12:31:48;;;;;;;4.22;1.70;;;;;;;;;;4994838;28;20031;-65
2022/09/02 12:34:20;;;;;;;3.65;1.80;;;;;;;;;;4991748;28;20038;-63
2022/09/02 12:36:52;;;;;;;4.18;1.80;;;;;;;;;;4992331;28;20034;-64
2022/09/02 12:39:26;;;;;;;5.22;2.00;;;;;;;;;;4994363;28;20486;-66
2022/09/02 12:42:16;;;;;;;5.50;1.67;;;;;;;;;;4994074;28;20034;-65
2022/09/02 12:45:00;;;;;;;2.78;1.80;;;;;;;;;;4994552;28;20030;-66
2022/09/02 12:47:52;;;;;;;3.88;1.70;;;;;;;;;;4991320;28;20034;-65
2022/09/02 12:50:39;;;;;;;4.18;1.80;;;;;;;;;;4985947;28;20046;-64
2022/09/02 12:53:22;;;;;;;3.85;1.60;;;;;;;;;;4994377;28;20042;-64
2022/09/02 12:56:22;;;;;;;2.38;1.75;;;;;;;;;;4992410;28;20033;-65
2022/09/02 12:58:53;;;;;;;3.50;1.50;;;;;;;;;;4989982;28;20054;-65
2022/09/02 13:01:25;;;;;;;3.20;1.40;;;;;;;;;;4992790;28;20506;-66
2022/09/02 13:03:58;;;;;;;5.10;1.60;;;;;;;;;;4994230;28;20025;-66
2022/09/02 13:06:38;;;;;;;4.60;1.95;;;;;;;;;;4991060;28;20042;-66
2022/09/02 13:09:03;;;;;;;;;;;;;;;;;;4993745;28;20034;-63
2022/09/02 13:11:57;;;;;;;2.37;1.50;;;;;;;;;;4994806;28;20009;-66
2022/09/02 13:14:53;;;;;;;2.63;1.65;;;;;;;;;;4993038;28;20625;-65
2022/09/02 13:17:28;;;;;;;2.15;1.63;;;;;;;;;;4986708;28;20042;-65
2022/09/02 13:20:23;;;;;;;47.15;4.13;;;;;;;;;;4990862;28;20530;-66
2022/09/02 13:23:17;;;;;;;6.13;1.65;;;;;;;;;;4993811;28;20092;-66
2022/09/02 13:25:55;;;;;;;1.70;1.60;;;;;;;;;;4990328;28;20030;-65
2022/09/02 13:28:32;;;;;;;2.83;1.40;;;;;;;;;;4985352;28;20048;-66
2022/09/02 13:30:58;;;;;;;5.10;1.55;;;;;;;;;;4994567;28;20109;-66
2022/09/02 13:33:25;;;;;;;4.43;1.58;;;;;;;;;;4992720;28;20117;-64
2022/09/02 13:35:58;;;;;;;2.70;1.50;;;;;;;;;;4991909;28;20035;-65
2022/09/02 13:38:26;;;;;;;1.50;1.40;;;;;;;;;;4984667;28;20061;-66
2022/09/02 13:40:52;;;;;;;3.80;1.42;;;;;;;;;;4991679;28;20160;-67
2022/09/02 13:43:20;;;;;;;2.67;1.40;;;;;;;;;;4993378;28;20030;-66
2022/09/02 13:45:47;;;;;;;11.63;2.40;;;;;;;;;;4991807;28;20062;-65
2022/09/02 13:48:25;;;;;;;1.73;1.50;;;;;;;;;;4991231;28;20030;-65
2022/09/02 13:50:54;;;;;;;2.70;1.65;;;;;;;;;;4992147;28;20399;-65
2022/09/02 13:53:46;;;;;;;2.90;1.40;;;;;;;;;;4994303;28;20034;-65
2022/09/02 13:56:14;;;;;;;3.38;1.50;;;;;;;;;;4990046;28;20558;-66
2022/09/02 13:58:44;;;;;;;3.22;1.80;;;;;;;;;;4990685;28;20439;-65
2022/09/02 14:01:16;;;;;;;5.13;1.50;;;;;;;;;;4990936;28;20391;-64
2022/09/02 14:03:53;;;;;;;2.08;1.60;;;;;;;;;;4993170;28;20057;-66
2022/09/02 14:06:22;;;;;;;3.60;1.65;;;;;;;;;;4982699;28;20325;-62
2022/09/02 14:08:51;;;;;;;2.83;1.55;;;;;;;;;;4986235;28;20620;-63
2022/09/02 14:11:17;;;;;;;160.02;10.32;;;;;;;;;;4973996;28;20101;-64
2022/09/02 14:13:47;;;;;;;80.57;7.28;;;;;;;;;;5005814;28;20037;-62
2022/09/02 14:16:26;;;;;;;37.30;4.68;;;;;;;;;;4992800;28;20070;-63
2022/09/02 14:19:16;;;;;;;5.70;1.90;;;;;;;;;;4992490;28;20661;-65
2022/09/02 14:21:48;;;;;;;3.63;1.80;;;;;;;;;;4991071;28;21594;-62
2022/09/02 14:24:15;;;;;;;2.47;1.60;;;;;;;;;;4991617;28;20062;-62
2022/09/02 14:26:46;;;;;;;5.00;1.70;;;;;;;;;;4991631;28;20030;-61
2022/09/02 14:29:16;;;;;;;4.18;1.70;;;;;;;;;;4983681;28;20037;-62
2022/09/02 14:31:42;;;;;;;6.85;2.00;;;;;;;;;;4975918;28;20538;-64
2022/09/02 14:34:33;;;;;;;4.32;1.80;;;;;;;;;;4993563;28;20034;-64
2022/09/02 14:36:59;;;;;;;3.78;1.75;;;;;;;;;;4992197;28;20109;-63
2022/09/02 14:39:25;;;;;;;4.15;1.83;;;;;;;;;;4991319;28;20113;-62
2022/09/02 14:41:53;;;;;;;5.13;1.70;;;;;;;;;;4990013;28;20030;-63
2022/09/02 14:44:31;;;;;;;2.80;1.40;;;;;;;;;;4993206;28;20113;-63
2022/09/02 14:46:58;;;;;;;2.55;1.60;;;;;;;;;;4988904;28;20777;-63
2022/09/02 14:49:27;;;;;;;2.25;1.50;;;;;;;;;;4992864;28;20092;-63
2022/09/02 14:52:01;;;;;;;37.63;3.13;;;;;;;;;;4989740;28;20053;-63
2022/09/02 14:54:43;;;;;;;6.40;1.60;;;;;;;;;;4992018;28;20744;-63
2022/09/02 14:57:32;;;;;;;4.68;1.60;;;;;;;;;;4990433;28;20117;-63
2022/09/02 14:59:59;;;;;;;3.93;2.10;;;;;;;;;;4988851;28;20057;-63
2022/09/02 15:02:25;;;;;;;3.92;1.90;;;;;;;;;;4985486;28;20033;-63
2022/09/02 15:04:50;;;;;;;3.47;1.55;;;;;;;;;;4990425;28;20038;-63
2022/09/02 15:07:16;;;;;;;2.67;1.60;;;;;;;;;;4982428;28;20042;-62
2022/09/02 15:09:44;;;;;;;7.35;3.17;;;;;;;;;;4989222;28;20039;-63
2022/09/02 15:12:12;;;;;;;12.48;7.80;;;;;;;;;;4990597;28;20050;-63
2022/09/02 15:14:38;;;;;;;3.58;1.80;;;;;;;;;;4986378;28;20080;-63
2022/09/02 15:17:07;;;;;;;4.70;1.70;;;;;;;;;;4990888;28;20030;-63